createdAt,value
2018-04-04T00:00:33.189Z,0.00
2018-04-04T00:01:33.186Z,0.00
2018-04-04T00:02:33.185Z,0.00
2018-04-04T00:03:33.179Z,0.00
2018-04-04T00:04:33.173Z,0.00
2018-04-04T00:05:33.166Z,0.00
2018-04-04T00:06:33.166Z,0.00
2018-04-04T00:07:33.169Z,0.00
2018-04-04T00:08:33.152Z,0.00
2018-04-04T00:09:33.149Z,0.00
2018-04-04T00:10:33.147Z,0.00
2018-04-04T00:11:33.139Z,0.00
2018-04-04T00:12:33.134Z,0.00
2018-04-04T00:13:33.132Z,0.00
2018-04-04T00:14:33.126Z,0.00
2018-04-04T00:15:33.120Z,0.00
2018-04-04T00:16:33.116Z,0.00
2018-04-04T00:17:33.114Z,0.00
2018-04-04T00:18:33.107Z,0.00
2018-04-04T00:19:33.101Z,0.00
2018-04-04T00:20:33.102Z,0.00
2018-04-04T00:21:33.098Z,0.00
2018-04-04T00:22:33.093Z,0.00
2018-04-04T00:23:33.084Z,0.00
2018-04-04T00:24:33.083Z,0.00
2018-04-04T00:25:33.078Z,0.00
2018-04-04T00:26:33.071Z,0.00
2018-04-04T00:27:33.066Z,0.00
2018-04-04T00:28:33.067Z,0.00
2018-04-04T00:29:33.056Z,0.00
2018-04-04T00:30:33.052Z,0.00
2018-04-04T00:31:33.045Z,0.00
2018-04-04T00:32:33.044Z,0.00
2018-04-04T00:33:33.040Z,0.00
2018-04-04T00:34:33.032Z,0.00
2018-04-04T00:35:33.027Z,0.00
2018-04-04T00:36:33.022Z,0.00
2018-04-04T00:37:33.016Z,0.00
2018-04-04T00:38:33.014Z,0.00
2018-04-04T00:39:33.013Z,0.00
2018-04-04T00:40:33.007Z,0.00
2018-04-04T00:41:32.997Z,0.00
2018-04-04T00:42:32.992Z,0.00
2018-04-04T00:43:32.986Z,0.00
2018-04-04T00:44:32.985Z,0.00
2018-04-04T00:45:32.980Z,0.00
2018-04-04T00:46:32.975Z,0.00
2018-04-04T00:47:32.975Z,0.00
2018-04-04T00:48:32.962Z,0.00
2018-04-04T00:49:32.956Z,0.00
2018-04-04T00:50:32.987Z,0.00
2018-04-04T00:51:32.947Z,0.00
2018-04-04T00:52:32.943Z,0.00
2018-04-04T00:53:32.942Z,0.00
2018-04-04T00:54:32.934Z,0.00
2018-04-04T00:55:32.926Z,0.00
2018-04-04T00:56:32.920Z,0.00
2018-04-04T00:57:32.922Z,0.00
2018-04-04T00:58:32.914Z,0.00
2018-04-04T00:59:32.908Z,0.00
2018-04-04T01:00:32.900Z,0.00
2018-04-04T01:01:32.895Z,0.00
2018-04-04T01:02:32.889Z,0.00
2018-04-04T01:03:32.882Z,0.00
2018-04-04T01:04:32.884Z,0.00
2018-04-04T01:05:32.876Z,0.00
2018-04-04T01:06:32.869Z,0.00
2018-04-04T01:07:32.862Z,0.00
2018-04-04T01:08:32.857Z,0.00
2018-04-04T01:09:32.856Z,0.00
2018-04-04T01:10:32.846Z,0.00
2018-04-04T01:11:32.841Z,0.00
2018-04-04T01:12:32.838Z,0.00
2018-04-04T01:13:32.829Z,0.00
2018-04-04T01:14:32.825Z,0.00
2018-04-04T01:15:32.818Z,0.00
2018-04-04T01:16:32.817Z,0.00
2018-04-04T01:17:32.811Z,0.00
2018-04-04T01:18:32.806Z,0.00
2018-04-04T01:19:32.801Z,0.00
2018-04-04T01:20:32.791Z,0.00
2018-04-04T01:21:32.785Z,0.00
2018-04-04T01:22:32.780Z,0.00
2018-04-04T01:23:32.780Z,0.00
2018-04-04T01:24:32.769Z,0.00
2018-04-04T01:25:32.785Z,0.00
2018-04-04T01:26:32.760Z,0.00
2018-04-04T01:27:32.752Z,0.00
2018-04-04T01:28:32.753Z,0.00
2018-04-04T01:29:32.742Z,0.00
2018-04-04T01:30:32.742Z,0.00
2018-04-04T01:31:32.735Z,0.00
2018-04-04T01:32:32.724Z,0.00
2018-04-04T01:33:32.719Z,0.00
2018-04-04T01:34:32.715Z,0.00
2018-04-04T01:35:32.708Z,0.00
2018-04-04T01:36:32.703Z,0.00
2018-04-04T01:37:32.698Z,0.00
2018-04-04T01:38:32.695Z,0.00
2018-04-04T01:39:32.689Z,0.00
2018-04-04T01:40:32.685Z,0.00
2018-04-04T01:41:32.674Z,0.00
2018-04-04T01:42:32.673Z,0.00
2018-04-04T01:43:32.667Z,0.00
2018-04-04T01:44:32.657Z,0.00
2018-04-04T01:45:32.651Z,0.00
2018-04-04T01:46:32.646Z,0.00
2018-04-04T01:47:32.641Z,0.00
2018-04-04T01:48:32.634Z,0.00
2018-04-04T01:49:32.630Z,0.00
2018-04-04T01:50:32.626Z,0.00
2018-04-04T01:51:32.620Z,0.00
2018-04-04T01:52:32.612Z,0.00
2018-04-04T01:53:32.608Z,0.00
2018-04-04T01:54:32.601Z,0.00
2018-04-04T01:55:32.595Z,0.00
2018-04-04T01:56:32.594Z,0.00
2018-04-04T01:57:32.588Z,0.00
2018-04-04T01:58:32.578Z,0.00
2018-04-04T01:59:32.573Z,0.00
2018-04-04T02:00:32.571Z,0.00
2018-04-04T02:01:32.567Z,0.00
2018-04-04T02:02:32.556Z,0.00
2018-04-04T02:03:32.550Z,0.00
2018-04-04T02:04:32.545Z,0.00
2018-04-04T02:05:32.540Z,0.00
2018-04-04T02:06:32.534Z,0.00
2018-04-04T02:07:32.528Z,0.00
2018-04-04T02:08:32.522Z,0.00
2018-04-04T02:09:32.516Z,0.00
2018-04-04T02:10:32.515Z,0.00
2018-04-04T02:11:32.508Z,0.00
2018-04-04T02:12:32.499Z,0.00
2018-04-04T02:13:32.494Z,0.00
2018-04-04T02:14:32.493Z,0.00
2018-04-04T02:15:32.490Z,0.00
2018-04-04T02:16:32.477Z,0.00
2018-04-04T02:17:32.470Z,0.00
2018-04-04T02:18:32.466Z,0.00
2018-04-04T02:19:32.459Z,0.00
2018-04-04T02:20:32.454Z,0.00
2018-04-04T02:21:32.448Z,0.00
2018-04-04T02:22:32.445Z,0.00
2018-04-04T02:23:32.436Z,0.00
2018-04-04T02:24:32.431Z,0.00
2018-04-04T02:25:32.425Z,0.00
2018-04-04T02:26:32.419Z,0.00
2018-04-04T02:27:32.412Z,0.00
2018-04-04T02:28:32.411Z,0.00
2018-04-04T02:29:32.405Z,0.00
2018-04-04T02:30:32.396Z,0.00
2018-04-04T02:31:32.396Z,0.00
2018-04-04T02:32:32.388Z,0.00
2018-04-04T02:33:32.386Z,0.00
2018-04-04T02:34:32.373Z,0.00
2018-04-04T02:35:32.367Z,0.00
2018-04-04T02:36:32.360Z,0.00
2018-04-04T02:37:32.355Z,0.00
2018-04-04T02:38:32.349Z,0.00
2018-04-04T02:39:32.342Z,0.00
2018-04-04T02:40:32.337Z,0.00
2018-04-04T02:41:32.331Z,0.00
2018-04-04T02:42:32.329Z,0.00
2018-04-04T02:43:32.324Z,0.00
2018-04-04T02:44:32.313Z,0.00
2018-04-04T02:45:32.307Z,0.00
2018-04-04T02:46:32.305Z,0.00
2018-04-04T02:47:32.305Z,0.00
2018-04-04T02:48:32.296Z,0.00
2018-04-04T02:49:32.284Z,0.00
2018-04-04T02:50:32.278Z,0.00
2018-04-04T02:51:32.271Z,0.00
2018-04-04T02:52:32.266Z,0.00
2018-04-04T02:53:32.259Z,0.00
2018-04-04T02:54:32.253Z,0.00
2018-04-04T02:55:32.251Z,0.00
2018-04-04T02:56:32.242Z,0.00
2018-04-04T02:57:32.246Z,0.00
2018-04-04T02:58:32.232Z,0.00
2018-04-04T02:59:32.222Z,0.00
2018-04-04T03:00:32.220Z,0.00
2018-04-04T03:01:32.214Z,0.00
2018-04-04T03:02:32.204Z,0.00
2018-04-04T03:03:32.198Z,0.00
2018-04-04T03:04:32.195Z,0.00
2018-04-04T03:05:32.189Z,0.00
2018-04-04T03:06:32.181Z,0.00
2018-04-04T03:07:32.173Z,0.00
2018-04-04T03:08:32.167Z,0.00
2018-04-04T03:09:32.162Z,0.00
2018-04-04T03:10:32.156Z,0.00
2018-04-04T03:11:32.149Z,0.00
2018-04-04T03:12:32.143Z,0.00
2018-04-04T03:13:32.137Z,0.00
2018-04-04T03:14:32.135Z,0.00
2018-04-04T03:15:32.127Z,0.00
2018-04-04T03:16:32.121Z,0.00
2018-04-04T03:17:32.111Z,0.00
2018-04-04T03:18:32.110Z,0.00
2018-04-04T03:19:32.103Z,0.00
2018-04-04T03:20:32.093Z,0.00
2018-04-04T03:21:32.087Z,0.00
2018-04-04T03:22:32.099Z,0.00
2018-04-04T03:23:32.074Z,0.00
2018-04-04T03:24:32.069Z,0.00
2018-04-04T03:25:32.061Z,0.00
2018-04-04T03:26:32.057Z,0.00
2018-04-04T03:27:32.049Z,0.00
2018-04-04T03:28:32.043Z,0.00
2018-04-04T03:29:32.037Z,0.00
2018-04-04T03:30:32.034Z,0.00
2018-04-04T03:31:32.025Z,0.00
2018-04-04T03:32:32.023Z,0.00
2018-04-04T03:33:32.017Z,0.00
2018-04-04T03:34:32.007Z,0.00
2018-04-04T03:35:32.000Z,0.00
2018-04-04T03:36:31.997Z,0.00
2018-04-04T03:37:31.991Z,0.00
2018-04-04T03:38:31.981Z,0.00
2018-04-04T03:39:31.974Z,0.00
2018-04-04T03:40:31.968Z,0.00
2018-04-04T03:41:31.962Z,0.00
2018-04-04T03:42:31.956Z,0.00
2018-04-04T03:43:31.950Z,0.00
2018-04-04T03:44:31.946Z,0.00
2018-04-04T03:45:31.946Z,0.00
2018-04-04T03:46:31.931Z,0.00
2018-04-04T03:47:31.924Z,0.00
2018-04-04T03:48:31.917Z,0.00
2018-04-04T03:49:31.911Z,0.00
2018-04-04T03:50:31.906Z,0.00
2018-04-04T03:51:31.903Z,0.00
2018-04-04T03:52:31.892Z,0.00
2018-04-04T03:53:31.886Z,0.00
2018-04-04T03:54:31.880Z,0.00
2018-04-04T03:55:31.875Z,0.00
2018-04-04T03:56:31.871Z,0.00
2018-04-04T03:57:31.867Z,0.00
2018-04-04T03:58:31.863Z,0.00
2018-04-04T03:59:31.852Z,0.00
2018-04-04T04:00:31.841Z,0.00
2018-04-04T04:01:31.835Z,0.00
2018-04-04T04:02:31.830Z,0.00
2018-04-04T04:03:31.823Z,0.00
2018-04-04T04:04:31.816Z,0.00
2018-04-04T04:05:31.810Z,0.00
2018-04-04T04:06:31.804Z,0.00
2018-04-04T04:07:31.798Z,0.00
2018-04-04T04:08:31.791Z,0.00
2018-04-04T04:09:31.786Z,0.00
2018-04-04T04:10:31.783Z,0.00
2018-04-04T04:11:31.776Z,0.00
2018-04-04T04:12:31.764Z,0.00
2018-04-04T04:13:31.759Z,0.00
2018-04-04T04:14:31.753Z,0.00
2018-04-04T04:15:31.746Z,0.00
2018-04-04T04:16:31.742Z,0.00
2018-04-04T04:17:31.737Z,0.00
2018-04-04T04:18:31.728Z,0.00
2018-04-04T04:19:31.721Z,0.00
2018-04-04T04:20:31.714Z,0.00
2018-04-04T04:21:31.711Z,0.00
2018-04-04T04:22:31.701Z,0.00
2018-04-04T04:23:31.694Z,0.00
2018-04-04T04:24:31.687Z,0.00
2018-04-04T04:25:31.682Z,0.00
2018-04-04T04:26:31.676Z,0.00
2018-04-04T04:27:31.667Z,0.00
2018-04-04T04:28:31.665Z,0.00
2018-04-04T04:29:31.659Z,0.00
2018-04-04T04:30:31.673Z,0.00
2018-04-04T04:31:31.646Z,4.00
2018-04-04T04:32:31.635Z,4.00
2018-04-04T04:33:31.631Z,0.00
2018-04-04T04:34:31.622Z,4.00
2018-04-04T04:35:31.615Z,4.00
2018-04-04T04:36:31.608Z,4.00
2018-04-04T04:37:31.602Z,8.00
2018-04-04T04:38:31.596Z,8.00
2018-04-04T04:39:31.589Z,12.00
2018-04-04T04:40:31.583Z,8.00
2018-04-04T04:41:31.575Z,12.00
2018-04-04T04:42:31.572Z,12.00
2018-04-04T04:43:31.566Z,20.00
2018-04-04T04:44:31.556Z,20.00
2018-04-04T04:45:31.555Z,24.00
2018-04-04T04:46:31.542Z,28.00
2018-04-04T04:47:31.538Z,36.00
2018-04-04T04:48:31.530Z,36.00
2018-04-04T04:49:31.536Z,48.00
2018-04-04T04:50:31.547Z,52.00
2018-04-04T04:51:31.513Z,60.00
2018-04-04T04:52:31.500Z,72.00
2018-04-04T04:53:31.494Z,84.00
2018-04-04T04:54:31.492Z,92.00
2018-04-04T04:55:31.484Z,104.00
2018-04-04T04:56:31.475Z,116.00
2018-04-04T04:57:31.467Z,128.00
2018-04-04T04:58:31.460Z,144.00
2018-04-04T04:59:31.452Z,160.00
2018-04-04T05:00:31.447Z,180.00
2018-04-04T05:01:31.440Z,200.00
2018-04-04T05:02:31.439Z,228.00
2018-04-04T05:03:31.425Z,248.00
2018-04-04T05:04:31.419Z,280.00
2018-04-04T05:05:31.413Z,312.00
2018-04-04T05:06:31.406Z,344.00
2018-04-04T05:07:31.397Z,364.00
2018-04-04T05:08:31.395Z,396.00
2018-04-04T05:09:31.388Z,428.00
2018-04-04T05:10:31.377Z,460.00
2018-04-04T05:11:31.370Z,496.00
2018-04-04T05:12:31.368Z,560.00
2018-04-04T05:13:31.362Z,612.00
2018-04-04T05:14:31.377Z,640.00
2018-04-04T05:15:31.344Z,684.00
2018-04-04T05:16:31.337Z,756.00
2018-04-04T05:17:31.332Z,840.00
2018-04-04T05:18:31.324Z,928.00
2018-04-04T05:19:31.320Z,1012.00
2018-04-04T05:20:31.334Z,1104.00
2018-04-04T05:21:31.304Z,1188.00
2018-04-04T05:22:31.307Z,1280.00
2018-04-04T05:23:31.293Z,1428.00
2018-04-04T05:24:31.284Z,1672.00
2018-04-04T05:25:31.277Z,1836.00
2018-04-04T05:26:31.275Z,2240.00
2018-04-04T05:27:31.273Z,2468.00
2018-04-04T05:28:31.263Z,2532.00
2018-04-04T05:29:31.251Z,3204.00
2018-04-04T05:30:31.250Z,3268.00
2018-04-04T05:31:31.240Z,4656.00
2018-04-04T05:32:31.232Z,5320.00
2018-04-04T05:33:31.227Z,5440.00
2018-04-04T05:34:31.222Z,5700.00
2018-04-04T05:35:31.214Z,6016.00
2018-04-04T05:36:31.209Z,6480.00
2018-04-04T05:37:31.205Z,7116.00
2018-04-04T05:38:31.198Z,7644.00
2018-04-04T05:39:31.192Z,6448.00
2018-04-04T05:40:31.191Z,3440.00
2018-04-04T05:41:31.186Z,2816.00
2018-04-04T05:42:31.178Z,5048.00
2018-04-04T05:43:31.172Z,6080.00
2018-04-04T05:44:31.171Z,4644.00
2018-04-04T05:45:31.169Z,3460.00
2018-04-04T05:46:31.160Z,6572.00
2018-04-04T05:47:31.155Z,8528.00
2018-04-04T05:48:31.150Z,4308.00
2018-04-04T05:49:31.147Z,2636.00
2018-04-04T05:50:31.142Z,2528.00
2018-04-04T05:51:31.138Z,1984.00
2018-04-04T05:52:31.138Z,1704.00
2018-04-04T05:53:31.134Z,1932.00
2018-04-04T05:54:31.127Z,1432.00
2018-04-04T05:55:31.120Z,1308.00
2018-04-04T05:56:31.119Z,1256.00
2018-04-04T05:57:31.113Z,1232.00
2018-04-04T05:58:31.129Z,1304.00
2018-04-04T05:59:31.104Z,1596.00
2018-04-04T06:00:31.100Z,2048.00
2018-04-04T06:01:31.096Z,1912.00
2018-04-04T06:02:31.093Z,1488.00
2018-04-04T06:03:31.088Z,1472.00
2018-04-04T06:04:31.088Z,1716.00
2018-04-04T06:05:31.085Z,1812.00
2018-04-04T06:06:31.080Z,1840.00
2018-04-04T06:07:31.074Z,1940.00
2018-04-04T06:08:31.066Z,1968.00
2018-04-04T06:09:31.062Z,2024.00
2018-04-04T06:10:31.060Z,2084.00
2018-04-04T06:11:31.053Z,2040.00
2018-04-04T06:12:31.049Z,2084.00
2018-04-04T06:13:31.049Z,2088.00
2018-04-04T06:14:31.041Z,2068.00
2018-04-04T06:15:31.034Z,2104.00
2018-04-04T06:16:31.032Z,2212.00
2018-04-04T06:17:31.025Z,2276.00
2018-04-04T06:18:31.030Z,2216.00
2018-04-04T06:19:31.019Z,2124.00
2018-04-04T06:20:31.010Z,2000.00
2018-04-04T06:21:31.006Z,1904.00
2018-04-04T06:22:31.002Z,1892.00
2018-04-04T06:23:30.996Z,1688.00
2018-04-04T06:24:30.995Z,1736.00
2018-04-04T06:25:30.991Z,1612.00
2018-04-04T06:26:30.982Z,1684.00
2018-04-04T06:27:30.976Z,2172.00
2018-04-04T06:28:30.971Z,2532.00
2018-04-04T06:29:30.970Z,2588.00
2018-04-04T06:30:30.961Z,2500.00
2018-04-04T06:31:30.962Z,2456.00
2018-04-04T06:32:30.953Z,2496.00
2018-04-04T06:33:30.946Z,2616.00
2018-04-04T06:34:30.942Z,2680.00
2018-04-04T06:35:30.936Z,2728.00
2018-04-04T06:36:30.935Z,2828.00
2018-04-04T06:37:30.932Z,2872.00
2018-04-04T06:38:30.927Z,2960.00
2018-04-04T06:39:30.919Z,3044.00
2018-04-04T06:40:30.910Z,3084.00
2018-04-04T06:41:30.905Z,3084.00
2018-04-04T06:42:30.902Z,2924.00
2018-04-04T06:43:30.895Z,2604.00
2018-04-04T06:44:30.940Z,2240.00
2018-04-04T06:45:30.888Z,1900.00
2018-04-04T06:46:30.881Z,1728.00
2018-04-04T06:47:30.875Z,1764.00
2018-04-04T06:48:30.870Z,1860.00
2018-04-04T06:49:30.865Z,1844.00
2018-04-04T06:50:30.863Z,1812.00
2018-04-04T06:51:30.859Z,1944.00
2018-04-04T06:52:30.854Z,1876.00
2018-04-04T06:53:30.844Z,1744.00
2018-04-04T06:54:30.839Z,1480.00
2018-04-04T06:55:30.833Z,1596.00
2018-04-04T06:56:30.827Z,1884.00
2018-04-04T06:57:30.823Z,2160.00
2018-04-04T06:58:30.817Z,2452.00
2018-04-04T06:59:30.811Z,2820.00
2018-04-04T07:00:30.810Z,3172.00
2018-04-04T07:01:30.805Z,3320.00
2018-04-04T07:02:30.795Z,3300.00
2018-04-04T07:03:30.789Z,3124.00
2018-04-04T07:04:30.788Z,2952.00
2018-04-04T07:05:30.784Z,2876.00
2018-04-04T07:06:30.775Z,2896.00
2018-04-04T07:07:30.839Z,2952.00
2018-04-04T07:08:30.763Z,2952.00
2018-04-04T07:09:30.758Z,2924.00
2018-04-04T07:10:30.752Z,2916.00
2018-04-04T07:11:30.746Z,2864.00
2018-04-04T07:12:30.740Z,2848.00
2018-04-04T07:13:30.735Z,2852.00
2018-04-04T07:14:30.733Z,2816.00
2018-04-04T07:15:30.729Z,2740.00
2018-04-04T07:16:30.723Z,2684.00
2018-04-04T07:17:30.713Z,2720.00
2018-04-04T07:18:30.712Z,2828.00
2018-04-04T07:19:30.706Z,2848.00
2018-04-04T07:20:30.696Z,2816.00
2018-04-04T07:21:30.692Z,2768.00
2018-04-04T07:22:30.687Z,2772.00
2018-04-04T07:23:30.680Z,2804.00
2018-04-04T07:24:30.676Z,2800.00
2018-04-04T07:25:30.674Z,2676.00
2018-04-04T07:26:30.664Z,2588.00
2018-04-04T07:27:30.657Z,2648.00
2018-04-04T07:28:30.653Z,2776.00
2018-04-04T07:29:30.646Z,2756.00
2018-04-04T07:30:30.640Z,2680.00
2018-04-04T07:31:30.634Z,2688.00
2018-04-04T07:32:30.633Z,2844.00
2018-04-04T07:33:30.627Z,3032.00
2018-04-04T07:34:30.617Z,3124.00
2018-04-04T07:35:30.617Z,3092.00
2018-04-04T07:36:30.609Z,3036.00
2018-04-04T07:37:30.603Z,3152.00
2018-04-04T07:38:30.604Z,3388.00
2018-04-04T07:39:30.590Z,3588.00
2018-04-04T07:40:30.583Z,3716.00
2018-04-04T07:41:30.576Z,3824.00
2018-04-04T07:42:30.571Z,3872.00
2018-04-04T07:43:30.564Z,3884.00
2018-04-04T07:44:30.558Z,3876.00
2018-04-04T07:45:30.552Z,3772.00
2018-04-04T07:46:30.553Z,3628.00
2018-04-04T07:47:30.543Z,3680.00
2018-04-04T07:48:30.533Z,4128.00
2018-04-04T07:49:30.529Z,4636.00
2018-04-04T07:50:30.526Z,5020.00
2018-04-04T07:51:30.519Z,5252.00
2018-04-04T07:52:30.510Z,5300.00
2018-04-04T07:53:30.505Z,5340.00
2018-04-04T07:54:30.499Z,5612.00
2018-04-04T07:55:30.494Z,5756.00
2018-04-04T07:56:30.487Z,5964.00
2018-04-04T07:57:30.481Z,6164.00
2018-04-04T07:58:30.479Z,6260.00
2018-04-04T07:59:30.472Z,6016.00
2018-04-04T08:00:30.463Z,6152.00
2018-04-04T08:01:30.459Z,6144.00
2018-04-04T08:02:30.452Z,5860.00
2018-04-04T08:03:30.445Z,5928.00
2018-04-04T08:04:30.440Z,6648.00
2018-04-04T08:05:30.436Z,7380.00
2018-04-04T08:06:30.430Z,7380.00
2018-04-04T08:07:30.424Z,7204.00
2018-04-04T08:08:30.418Z,6616.00
2018-04-04T08:09:30.417Z,6524.00
2018-04-04T08:10:30.412Z,6276.00
2018-04-04T08:11:30.406Z,6364.00
2018-04-04T08:12:30.397Z,6612.00
2018-04-04T08:13:30.391Z,6580.00
2018-04-04T08:14:30.386Z,6436.00
2018-04-04T08:15:30.400Z,6504.00
2018-04-04T08:16:30.380Z,6808.00
2018-04-04T08:17:30.375Z,6736.00
2018-04-04T08:18:30.367Z,6316.00
2018-04-04T08:19:30.361Z,6224.00
2018-04-04T08:20:30.357Z,6492.00
2018-04-04T08:21:30.354Z,6928.00
2018-04-04T08:22:30.346Z,7304.00
2018-04-04T08:23:30.342Z,7460.00
2018-04-04T08:24:30.336Z,7748.00
2018-04-04T08:25:30.333Z,8064.00
2018-04-04T08:26:30.327Z,8148.00
2018-04-04T08:27:30.322Z,7868.00
2018-04-04T08:28:30.322Z,7752.00
2018-04-04T08:29:30.319Z,7816.00
2018-04-04T08:30:30.312Z,8104.00
2018-04-04T08:31:30.307Z,8472.00
2018-04-04T08:32:30.300Z,8680.00
2018-04-04T08:33:30.295Z,8100.00
2018-04-04T08:34:30.298Z,7484.00
2018-04-04T08:35:30.286Z,7104.00
2018-04-04T08:36:30.282Z,6824.00
2018-04-04T08:37:30.279Z,6292.00
2018-04-04T08:38:30.275Z,5740.00
2018-04-04T08:39:30.269Z,5484.00
2018-04-04T08:40:30.265Z,5564.00
2018-04-04T08:41:30.263Z,5956.00
2018-04-04T08:42:30.261Z,6236.00
2018-04-04T08:43:30.256Z,6068.00
2018-04-04T08:44:30.248Z,5500.00
2018-04-04T08:45:30.244Z,4400.00
2018-04-04T08:46:30.241Z,3616.00
2018-04-04T08:47:30.294Z,3292.00
2018-04-04T08:48:30.236Z,3164.00
2018-04-04T08:49:30.232Z,3208.00
2018-04-04T08:50:30.226Z,3384.00
2018-04-04T08:51:30.218Z,3444.00
2018-04-04T08:52:30.215Z,3620.00
2018-04-04T08:53:30.211Z,4092.00
2018-04-04T08:54:30.207Z,4440.00
2018-04-04T08:55:30.208Z,4232.00
2018-04-04T08:56:30.199Z,3972.00
2018-04-04T08:57:30.193Z,4056.00
2018-04-04T08:58:30.189Z,4320.00
2018-04-04T08:59:30.191Z,4408.00
2018-04-04T09:00:30.184Z,4164.00
2018-04-04T09:01:30.180Z,3936.00
2018-04-04T09:02:30.173Z,3928.00
2018-04-04T09:03:30.167Z,4088.00
2018-04-04T09:04:30.164Z,3992.00
2018-04-04T09:05:30.159Z,3940.00
2018-04-04T09:06:30.154Z,3960.00
2018-04-04T09:07:30.150Z,4088.00
2018-04-04T09:08:30.149Z,4480.00
2018-04-04T09:09:30.145Z,4996.00
2018-04-04T09:10:30.137Z,5240.00
2018-04-04T09:11:30.133Z,5432.00
2018-04-04T09:12:30.132Z,5920.00
2018-04-04T09:13:30.130Z,6692.00
2018-04-04T09:14:30.152Z,7248.00
2018-04-04T09:15:30.114Z,7172.00
2018-04-04T09:16:30.113Z,6880.00
2018-04-04T09:17:30.106Z,6864.00
2018-04-04T09:18:30.103Z,7360.00
2018-04-04T09:19:30.101Z,7992.00
2018-04-04T09:20:30.093Z,8536.00
2018-04-04T09:21:30.090Z,9024.00
2018-04-04T09:22:30.089Z,10188.00
2018-04-04T09:23:30.084Z,12196.00
2018-04-04T09:24:30.077Z,14116.00
2018-04-04T09:25:30.072Z,16384.00
2018-04-04T09:26:30.073Z,17024.00
2018-04-04T09:27:30.068Z,18400.00
2018-04-04T09:28:30.060Z,18144.00
2018-04-04T09:29:30.061Z,19296.00
2018-04-04T09:30:30.055Z,17504.00
2018-04-04T09:31:30.051Z,17248.00
2018-04-04T09:32:30.048Z,19840.00
2018-04-04T09:33:30.046Z,18176.00
2018-04-04T09:34:30.043Z,19392.00
2018-04-04T09:35:30.040Z,19392.00
2018-04-04T09:36:30.039Z,23328.00
2018-04-04T09:37:30.037Z,26272.00
2018-04-04T09:38:30.036Z,19968.00
2018-04-04T09:39:30.032Z,15560.00
2018-04-04T09:40:30.034Z,14724.00
2018-04-04T09:41:30.035Z,14776.00
2018-04-04T09:42:30.029Z,15572.00
2018-04-04T09:43:30.028Z,19072.00
2018-04-04T09:44:30.030Z,18112.00
2018-04-04T09:45:30.030Z,15044.00
2018-04-04T09:46:30.026Z,13540.00
2018-04-04T09:47:30.027Z,12672.00
2018-04-04T09:48:30.029Z,11788.00
2018-04-04T09:49:30.070Z,11316.00
2018-04-04T09:50:30.026Z,12016.00
2018-04-04T09:51:30.021Z,12948.00
2018-04-04T09:52:30.022Z,12828.00
2018-04-04T09:53:30.021Z,11800.00
2018-04-04T09:54:30.025Z,10768.00
2018-04-04T09:55:30.024Z,9560.00
2018-04-04T09:56:30.018Z,8636.00
2018-04-04T09:57:30.019Z,8656.00
2018-04-04T09:58:30.023Z,9316.00
2018-04-04T09:59:30.020Z,10608.00
2018-04-04T10:00:30.021Z,13456.00
2018-04-04T10:01:30.014Z,17312.00
2018-04-04T10:02:30.014Z,19712.00
2018-04-04T10:03:30.012Z,21984.00
2018-04-04T10:04:30.012Z,24928.00
2018-04-04T10:05:30.009Z,26464.00
2018-04-04T10:06:30.013Z,21568.00
2018-04-04T10:07:30.011Z,25376.00
2018-04-04T10:08:30.007Z,26016.00
2018-04-04T10:09:30.008Z,29664.00
2018-04-04T10:10:30.008Z,26528.00
2018-04-04T10:11:30.008Z,26752.00
2018-04-04T10:12:30.008Z,25728.00
2018-04-04T10:13:30.010Z,24352.00
2018-04-04T10:14:30.010Z,21344.00
2018-04-04T10:15:30.011Z,25056.00
2018-04-04T10:16:30.014Z,24192.00
2018-04-04T10:17:30.016Z,21920.00
2018-04-04T10:18:30.027Z,18432.00
2018-04-04T10:19:30.024Z,17632.00
2018-04-04T10:20:30.021Z,18528.00
2018-04-04T10:21:30.030Z,21536.00
2018-04-04T10:22:30.030Z,21664.00
2018-04-04T10:23:30.029Z,20000.00
2018-04-04T10:24:30.037Z,22208.00
2018-04-04T10:25:30.039Z,21152.00
2018-04-04T10:26:30.038Z,19168.00
2018-04-04T10:27:30.047Z,17024.00
2018-04-04T10:28:30.042Z,17344.00
2018-04-04T10:29:30.047Z,16448.00
2018-04-04T10:30:30.050Z,15272.00
2018-04-04T10:31:30.050Z,15352.00
2018-04-04T10:32:30.054Z,17056.00
2018-04-04T10:33:30.055Z,16640.00
2018-04-04T10:34:30.061Z,15968.00
2018-04-04T10:35:30.060Z,16032.00
2018-04-04T10:36:30.070Z,15244.00
2018-04-04T10:37:30.069Z,15228.00
2018-04-04T10:38:30.096Z,14768.00
2018-04-04T10:39:30.073Z,14652.00
2018-04-04T10:40:30.071Z,14252.00
2018-04-04T10:41:30.072Z,14028.00
2018-04-04T10:42:30.078Z,13968.00
2018-04-04T10:43:30.077Z,13948.00
2018-04-04T10:44:30.079Z,13784.00
2018-04-04T10:45:30.080Z,13600.00
2018-04-04T10:46:30.082Z,13488.00
2018-04-04T10:47:30.083Z,13424.00
2018-04-04T10:48:30.085Z,13528.00
2018-04-04T10:49:30.086Z,13572.00
2018-04-04T10:50:30.193Z,13668.00
2018-04-04T10:51:30.091Z,13584.00
2018-04-04T10:52:30.090Z,13296.00
2018-04-04T10:53:30.091Z,13004.00
2018-04-04T10:54:30.095Z,12600.00
2018-04-04T10:55:30.092Z,12324.00
2018-04-04T10:56:30.097Z,12088.00
2018-04-04T10:57:30.099Z,11744.00
2018-04-04T10:58:30.094Z,11356.00
2018-04-04T10:59:30.096Z,10932.00
2018-04-04T11:00:30.097Z,10692.00
2018-04-04T11:01:30.096Z,10596.00
2018-04-04T11:02:30.097Z,10592.00
2018-04-04T11:03:30.096Z,10572.00
2018-04-04T11:04:30.133Z,10392.00
2018-04-04T11:05:30.097Z,10016.00
2018-04-04T11:06:30.097Z,9996.00
2018-04-04T11:07:30.096Z,9864.00
2018-04-04T11:08:30.100Z,9664.00
2018-04-04T11:09:30.100Z,9440.00
2018-04-04T11:10:30.100Z,9200.00
2018-04-04T11:11:30.099Z,8936.00
2018-04-04T11:12:30.099Z,8700.00
2018-04-04T11:13:30.096Z,8516.00
2018-04-04T11:14:30.094Z,8364.00
2018-04-04T11:15:30.094Z,8204.00
2018-04-04T11:16:30.092Z,8072.00
2018-04-04T11:17:30.127Z,7964.00
2018-04-04T11:18:30.091Z,7852.00
2018-04-04T11:19:30.092Z,7776.00
2018-04-04T11:20:30.088Z,7732.00
2018-04-04T11:21:30.138Z,7708.00
2018-04-04T11:22:30.091Z,7664.00
2018-04-04T11:23:30.092Z,7596.00
2018-04-04T11:24:30.084Z,7528.00
2018-04-04T11:25:30.084Z,7500.00
2018-04-04T11:26:30.086Z,7504.00
2018-04-04T11:27:30.081Z,7544.00
2018-04-04T11:28:30.085Z,7568.00
2018-04-04T11:29:30.083Z,7568.00
2018-04-04T11:30:30.076Z,7528.00
2018-04-04T11:31:30.075Z,7492.00
2018-04-04T11:32:30.073Z,7488.00
2018-04-04T11:33:30.072Z,7524.00
2018-04-04T11:34:30.072Z,7576.00
2018-04-04T11:35:30.068Z,7584.00
2018-04-04T11:36:30.067Z,7632.00
2018-04-04T11:37:30.065Z,7732.00
2018-04-04T11:38:30.064Z,7844.00
2018-04-04T11:39:30.061Z,7908.00
2018-04-04T11:40:30.065Z,8004.00
2018-04-04T11:41:30.063Z,8012.00
2018-04-04T11:42:30.062Z,8420.00
2018-04-04T11:43:30.062Z,8464.00
2018-04-04T11:44:30.054Z,8368.00
2018-04-04T11:45:30.053Z,8244.00
2018-04-04T11:46:30.050Z,8112.00
2018-04-04T11:47:30.048Z,7888.00
2018-04-04T11:48:30.051Z,7708.00
2018-04-04T11:49:30.051Z,7584.00
2018-04-04T11:50:30.051Z,7524.00
2018-04-04T11:51:30.059Z,7596.00
2018-04-04T11:52:30.038Z,7752.00
2018-04-04T11:53:30.038Z,7912.00
2018-04-04T11:54:30.040Z,7916.00
2018-04-04T11:55:30.043Z,7700.00
2018-04-04T11:56:30.032Z,7164.00
2018-04-04T11:57:30.032Z,6692.00
2018-04-04T11:58:30.035Z,6256.00
2018-04-04T11:59:30.027Z,6212.00
2018-04-04T12:00:30.030Z,6380.00
2018-04-04T12:01:30.028Z,6644.00
2018-04-04T12:02:30.050Z,6812.00
2018-04-04T12:03:30.020Z,6800.00
2018-04-04T12:04:30.019Z,6764.00
2018-04-04T12:05:30.018Z,6776.00
2018-04-04T12:06:30.017Z,6880.00
2018-04-04T12:07:30.019Z,6952.00
2018-04-04T12:08:30.012Z,6880.00
2018-04-04T12:09:30.010Z,6648.00
2018-04-04T12:10:30.009Z,6336.00
2018-04-04T12:11:30.006Z,6092.00
2018-04-04T12:12:30.051Z,5932.00
2018-04-04T12:13:30.007Z,6068.00
2018-04-04T12:14:30.002Z,6188.00
2018-04-04T12:15:29.998Z,6280.00
2018-04-04T12:16:30.003Z,6236.00
2018-04-04T12:17:29.997Z,6156.00
2018-04-04T12:18:29.993Z,6176.00
2018-04-04T12:19:29.992Z,6460.00
2018-04-04T12:20:29.993Z,6608.00
2018-04-04T12:21:29.993Z,6520.00
2018-04-04T12:22:29.987Z,6976.00
2018-04-04T12:23:29.988Z,6644.00
2018-04-04T12:24:29.986Z,6652.00
2018-04-04T12:25:29.988Z,6236.00
2018-04-04T12:26:29.979Z,6188.00
2018-04-04T12:27:29.977Z,6296.00
2018-04-04T12:28:29.977Z,6392.00
2018-04-04T12:29:29.973Z,6576.00